sensor_id;sensor_type;location;lat;lon;timestamp;P1;durP1;ratioP1;P2;durP2;ratioP2
73168;SDS011;61379;59.732;30.468;2023-07-31T00:00:01;11.73;;;8.35;;
73168;SDS011;61379;59.732;30.468;2023-07-31T00:02:29;10.10;;;8.70;;
73168;SDS011;61379;59.732;30.468;2023-07-31T00:04:56;13.40;;;9.55;;
73168;SDS011;61379;59.732;30.468;2023-07-31T00:07:23;10.32;;;8.75;;
73168;SDS011;61379;59.732;30.468;2023-07-31T00:09:51;12.32;;;9.23;;
73168;SDS011;61379;59.732;30.468;2023-07-31T00:12:18;12.18;;;9.25;;
73168;SDS011;61379;59.732;30.468;2023-07-31T00:14:45;11.48;;;8.95;;
73168;SDS011;61379;59.732;30.468;2023-07-31T00:17:12;13.68;;;8.27;;
73168;SDS011;61379;59.732;30.468;2023-07-31T00:19:38;15.90;;;9.45;;
73168;SDS011;61379;59.732;30.468;2023-07-31T00:22:05;12.88;;;9.15;;
73168;SDS011;61379;59.732;30.468;2023-07-31T00:24:32;12.80;;;9.88;;
73168;SDS011;61379;59.732;30.468;2023-07-31T00:27:00;13.95;;;10.60;;
73168;SDS011;61379;59.732;30.468;2023-07-31T00:29:27;16.73;;;11.00;;
73168;SDS011;61379;59.732;30.468;2023-07-31T00:31:54;14.68;;;11.88;;
73168;SDS011;61379;59.732;30.468;2023-07-31T00:34:20;16.88;;;12.57;;
73168;SDS011;61379;59.732;30.468;2023-07-31T00:36:47;13.50;;;10.20;;
73168;SDS011;61379;59.732;30.468;2023-07-31T00:39:14;15.45;;;10.23;;
73168;SDS011;61379;59.732;30.468;2023-07-31T00:41:40;13.60;;;10.23;;
73168;SDS011;61379;59.732;30.468;2023-07-31T00:44:08;13.20;;;10.02;;
73168;SDS011;61379;59.732;30.468;2023-07-31T00:46:35;11.75;;;9.35;;
73168;SDS011;61379;59.732;30.468;2023-07-31T00:49:02;18.08;;;9.27;;
73168;SDS011;61379;59.732;30.468;2023-07-31T00:51:29;11.60;;;9.70;;
73168;SDS011;61379;59.732;30.468;2023-07-31T00:53:56;11.68;;;9.32;;
73168;SDS011;61379;59.732;30.468;2023-07-31T00:56:23;16.30;;;10.07;;
73168;SDS011;61379;59.732;30.468;2023-07-31T00:58:50;11.63;;;10.48;;
73168;SDS011;61379;59.732;30.468;2023-07-31T01:01:18;11.60;;;9.43;;
73168;SDS011;61379;59.732;30.468;2023-07-31T01:03:45;13.85;;;9.77;;
73168;SDS011;61379;59.732;30.468;2023-07-31T01:06:14;13.07;;;8.90;;
73168;SDS011;61379;59.732;30.468;2023-07-31T01:08:42;13.68;;;9.77;;
73168;SDS011;61379;59.732;30.468;2023-07-31T01:11:14;15.82;;;9.10;;
73168;SDS011;61379;59.732;30.468;2023-07-31T01:13:42;11.82;;;10.20;;
73168;SDS011;61379;59.732;30.468;2023-07-31T01:16:08;12.50;;;10.10;;
73168;SDS011;61379;59.732;30.468;2023-07-31T01:18:37;11.77;;;9.00;;
73168;SDS011;61379;59.732;30.468;2023-07-31T01:21:06;11.93;;;9.07;;
73168;SDS011;61379;59.732;30.468;2023-07-31T01:26:24;15.57;;;9.30;;
73168;SDS011;61379;59.732;30.468;2023-07-31T01:28:54;14.13;;;9.23;;
73168;SDS011;61379;59.732;30.468;2023-07-31T01:31:22;14.65;;;10.52;;
73168;SDS011;61379;59.732;30.468;2023-07-31T01:33:50;13.73;;;9.68;;
73168;SDS011;61379;59.732;30.468;2023-07-31T01:36:17;14.75;;;11.10;;
73168;SDS011;61379;59.732;30.468;2023-07-31T01:38:44;12.13;;;10.70;;
73168;SDS011;61379;59.732;30.468;2023-07-31T01:41:10;15.20;;;11.55;;
73168;SDS011;61379;59.732;30.468;2023-07-31T01:43:39;14.30;;;12.52;;
73168;SDS011;61379;59.732;30.468;2023-07-31T01:46:05;15.35;;;11.48;;
73168;SDS011;61379;59.732;30.468;2023-07-31T01:48:32;13.90;;;10.85;;
73168;SDS011;61379;59.732;30.468;2023-07-31T01:53:28;16.25;;;12.25;;
73168;SDS011;61379;59.732;30.468;2023-07-31T01:55:55;18.10;;;11.85;;
73168;SDS011;61379;59.732;30.468;2023-07-31T01:58:21;15.23;;;11.70;;
73168;SDS011;61379;59.732;30.468;2023-07-31T02:00:49;15.57;;;11.80;;
73168;SDS011;61379;59.732;30.468;2023-07-31T02:03:16;18.85;;;12.05;;
73168;SDS011;61379;59.732;30.468;2023-07-31T02:05:46;14.18;;;12.32;;
73168;SDS011;61379;59.732;30.468;2023-07-31T02:08:13;17.45;;;12.73;;
73168;SDS011;61379;59.732;30.468;2023-07-31T02:10:40;19.27;;;11.68;;
73168;SDS011;61379;59.732;30.468;2023-07-31T02:13:07;17.10;;;10.68;;
73168;SDS011;61379;59.732;30.468;2023-07-31T02:15:35;17.48;;;11.10;;
73168;SDS011;61379;59.732;30.468;2023-07-31T02:18:03;19.52;;;12.50;;
73168;SDS011;61379;59.732;30.468;2023-07-31T02:20:35;16.50;;;11.98;;
73168;SDS011;61379;59.732;30.468;2023-07-31T02:23:02;19.05;;;12.68;;
73168;SDS011;61379;59.732;30.468;2023-07-31T02:25:29;15.65;;;11.65;;
73168;SDS011;61379;59.732;30.468;2023-07-31T02:27:55;15.23;;;11.45;;
73168;SDS011;61379;59.732;30.468;2023-07-31T02:30:22;17.08;;;13.25;;
73168;SDS011;61379;59.732;30.468;2023-07-31T02:32:49;15.57;;;12.35;;
73168;SDS011;61379;59.732;30.468;2023-07-31T02:35:17;16.95;;;12.88;;
73168;SDS011;61379;59.732;30.468;2023-07-31T02:37:44;16.15;;;12.35;;
73168;SDS011;61379;59.732;30.468;2023-07-31T02:40:11;14.35;;;12.40;;
73168;SDS011;61379;59.732;30.468;2023-07-31T02:42:38;13.93;;;11.65;;
73168;SDS011;61379;59.732;30.468;2023-07-31T02:45:05;15.60;;;12.27;;
73168;SDS011;61379;59.732;30.468;2023-07-31T02:47:32;15.15;;;11.80;;
73168;SDS011;61379;59.732;30.468;2023-07-31T02:49:59;14.50;;;11.10;;
73168;SDS011;61379;59.732;30.468;2023-07-31T02:52:27;12.55;;;9.35;;
73168;SDS011;61379;59.732;30.468;2023-07-31T02:54:54;11.93;;;9.70;;
73168;SDS011;61379;59.732;30.468;2023-07-31T02:57:20;13.82;;;10.90;;
73168;SDS011;61379;59.732;30.468;2023-07-31T02:59:47;11.02;;;9.73;;
73168;SDS011;61379;59.732;30.468;2023-07-31T03:02:14;13.63;;;10.55;;
73168;SDS011;61379;59.732;30.468;2023-07-31T03:04:41;11.40;;;9.85;;
73168;SDS011;61379;59.732;30.468;2023-07-31T03:07:07;11.32;;;9.50;;
73168;SDS011;61379;59.732;30.468;2023-07-31T03:09:36;11.95;;;10.05;;
73168;SDS011;61379;59.732;30.468;2023-07-31T03:12:03;9.55;;;8.57;;
73168;SDS011;61379;59.732;30.468;2023-07-31T03:14:29;11.52;;;8.43;;
73168;SDS011;61379;59.732;30.468;2023-07-31T03:16:56;9.50;;;8.43;;
73168;SDS011;61379;59.732;30.468;2023-07-31T03:19:23;11.05;;;8.15;;
73168;SDS011;61379;59.732;30.468;2023-07-31T03:21:50;10.55;;;9.20;;
73168;SDS011;61379;59.732;30.468;2023-07-31T03:24:16;9.43;;;7.68;;
73168;SDS011;61379;59.732;30.468;2023-07-31T03:26:44;10.32;;;8.50;;
73168;SDS011;61379;59.732;30.468;2023-07-31T03:29:11;11.38;;;7.97;;
73168;SDS011;61379;59.732;30.468;2023-07-31T03:31:38;9.55;;;8.40;;
73168;SDS011;61379;59.732;30.468;2023-07-31T03:34:05;9.32;;;8.30;;
73168;SDS011;61379;59.732;30.468;2023-07-31T03:36:31;10.25;;;8.50;;
73168;SDS011;61379;59.732;30.468;2023-07-31T03:38:58;11.73;;;8.70;;
73168;SDS011;61379;59.732;30.468;2023-07-31T03:41:25;10.55;;;8.10;;
73168;SDS011;61379;59.732;30.468;2023-07-31T03:43:53;10.55;;;8.13;;
73168;SDS011;61379;59.732;30.468;2023-07-31T03:46:21;11.15;;;8.40;;
73168;SDS011;61379;59.732;30.468;2023-07-31T03:48:48;9.85;;;8.48;;
73168;SDS011;61379;59.732;30.468;2023-07-31T03:51:15;9.93;;;8.93;;
73168;SDS011;61379;59.732;30.468;2023-07-31T03:53:42;10.20;;;8.63;;
73168;SDS011;61379;59.732;30.468;2023-07-31T03:56:08;11.13;;;9.48;;
73168;SDS011;61379;59.732;30.468;2023-07-31T03:58:35;16.92;;;9.75;;
73168;SDS011;61379;59.732;30.468;2023-07-31T04:01:03;12.65;;;9.70;;
73168;SDS011;61379;59.732;30.468;2023-07-31T04:03:30;13.20;;;11.77;;
73168;SDS011;61379;59.732;30.468;2023-07-31T04:05:57;13.77;;;12.35;;
73168;SDS011;61379;59.732;30.468;2023-07-31T04:08:24;15.23;;;13.60;;
73168;SDS011;61379;59.732;30.468;2023-07-31T04:10:50;13.52;;;11.27;;
73168;SDS011;61379;59.732;30.468;2023-07-31T04:13:17;11.93;;;9.38;;
73168;SDS011;61379;59.732;30.468;2023-07-31T04:15:47;12.55;;;11.35;;
73168;SDS011;61379;59.732;30.468;2023-07-31T04:18:16;11.57;;;10.45;;
73168;SDS011;61379;59.732;30.468;2023-07-31T04:20:42;11.27;;;10.05;;
73168;SDS011;61379;59.732;30.468;2023-07-31T04:23:09;11.27;;;9.75;;
73168;SDS011;61379;59.732;30.468;2023-07-31T04:25:36;11.63;;;9.82;;
73168;SDS011;61379;59.732;30.468;2023-07-31T04:28:02;11.38;;;10.27;;
73168;SDS011;61379;59.732;30.468;2023-07-31T04:30:29;10.30;;;9.35;;
73168;SDS011;61379;59.732;30.468;2023-07-31T04:32:56;9.98;;;9.07;;
73168;SDS011;61379;59.732;30.468;2023-07-31T04:35:24;11.75;;;10.65;;
73168;SDS011;61379;59.732;30.468;2023-07-31T04:37:51;11.05;;;10.05;;
73168;SDS011;61379;59.732;30.468;2023-07-31T04:40:17;12.05;;;9.05;;
73168;SDS011;61379;59.732;30.468;2023-07-31T04:42:45;10.13;;;9.13;;
73168;SDS011;61379;59.732;30.468;2023-07-31T04:45:11;10.32;;;9.07;;
73168;SDS011;61379;59.732;30.468;2023-07-31T04:47:38;9.80;;;8.65;;
73168;SDS011;61379;59.732;30.468;2023-07-31T04:50:05;9.45;;;8.55;;
73168;SDS011;61379;59.732;30.468;2023-07-31T04:52:34;9.15;;;8.35;;
73168;SDS011;61379;59.732;30.468;2023-07-31T04:55:00;8.88;;;7.97;;
73168;SDS011;61379;59.732;30.468;2023-07-31T04:57:30;9.82;;;8.95;;
73168;SDS011;61379;59.732;30.468;2023-07-31T04:59:56;10.02;;;9.13;;
73168;SDS011;61379;59.732;30.468;2023-07-31T05:02:23;9.85;;;8.85;;
73168;SDS011;61379;59.732;30.468;2023-07-31T05:04:50;9.85;;;8.90;;
73168;SDS011;61379;59.732;30.468;2023-07-31T05:07:17;8.80;;;7.90;;
73168;SDS011;61379;59.732;30.468;2023-07-31T05:09:45;9.50;;;8.55;;
73168;SDS011;61379;59.732;30.468;2023-07-31T05:12:12;10.80;;;8.77;;
73168;SDS011;61379;59.732;30.468;2023-07-31T05:14:38;9.23;;;8.35;;
73168;SDS011;61379;59.732;30.468;2023-07-31T05:17:05;9.32;;;8.25;;
73168;SDS011;61379;59.732;30.468;2023-07-31T05:19:32;10.50;;;8.27;;
73168;SDS011;61379;59.732;30.468;2023-07-31T05:22:00;9.82;;;8.80;;
73168;SDS011;61379;59.732;30.468;2023-07-31T05:24:27;9.40;;;8.50;;
73168;SDS011;61379;59.732;30.468;2023-07-31T05:26:55;9.48;;;8.57;;
73168;SDS011;61379;59.732;30.468;2023-07-31T05:29:22;8.85;;;8.15;;
73168;SDS011;61379;59.732;30.468;2023-07-31T05:31:48;10.82;;;8.75;;
73168;SDS011;61379;59.732;30.468;2023-07-31T05:34:15;9.38;;;8.57;;
73168;SDS011;61379;59.732;30.468;2023-07-31T05:36:42;9.35;;;8.13;;
73168;SDS011;61379;59.732;30.468;2023-07-31T05:39:09;11.13;;;8.18;;
73168;SDS011;61379;59.732;30.468;2023-07-31T05:41:36;9.25;;;8.48;;
73168;SDS011;61379;59.732;30.468;2023-07-31T05:44:04;9.23;;;7.97;;
73168;SDS011;61379;59.732;30.468;2023-07-31T05:46:31;9.20;;;8.38;;
73168;SDS011;61379;59.732;30.468;2023-07-31T05:48:58;10.80;;;9.18;;
73168;SDS011;61379;59.732;30.468;2023-07-31T05:51:26;9.23;;;8.35;;
73168;SDS011;61379;59.732;30.468;2023-07-31T05:53:52;8.68;;;7.93;;
73168;SDS011;61379;59.732;30.468;2023-07-31T05:56:19;9.60;;;8.20;;
73168;SDS011;61379;59.732;30.468;2023-07-31T05:58:46;8.98;;;8.23;;
73168;SDS011;61379;59.732;30.468;2023-07-31T06:01:16;9.10;;;8.27;;
73168;SDS011;61379;59.732;30.468;2023-07-31T06:03:43;8.55;;;7.85;;
73168;SDS011;61379;59.732;30.468;2023-07-31T06:06:10;8.70;;;7.95;;
73168;SDS011;61379;59.732;30.468;2023-07-31T06:08:37;8.50;;;7.72;;
73168;SDS011;61379;59.732;30.468;2023-07-31T06:11:03;9.35;;;8.55;;
73168;SDS011;61379;59.732;30.468;2023-07-31T06:13:30;10.23;;;9.32;;
73168;SDS011;61379;59.732;30.468;2023-07-31T06:15:57;8.65;;;7.88;;
73168;SDS011;61379;59.732;30.468;2023-07-31T06:18:26;9.18;;;8.27;;
73168;SDS011;61379;59.732;30.468;2023-07-31T06:20:52;8.35;;;7.75;;
73168;SDS011;61379;59.732;30.468;2023-07-31T06:23:19;12.50;;;8.43;;
73168;SDS011;61379;59.732;30.468;2023-07-31T06:25:46;12.65;;;8.43;;
73168;SDS011;61379;59.732;30.468;2023-07-31T06:28:13;10.38;;;8.07;;
73168;SDS011;61379;59.732;30.468;2023-07-31T06:30:40;9.07;;;8.27;;
73168;SDS011;61379;59.732;30.468;2023-07-31T06:33:07;9.10;;;8.20;;
73168;SDS011;61379;59.732;30.468;2023-07-31T06:35:35;8.95;;;7.82;;
73168;SDS011;61379;59.732;30.468;2023-07-31T06:38:02;8.90;;;8.00;;
73168;SDS011;61379;59.732;30.468;2023-07-31T06:40:29;9.63;;;8.82;;
73168;SDS011;61379;59.732;30.468;2023-07-31T06:42:56;9.52;;;8.68;;
73168;SDS011;61379;59.732;30.468;2023-07-31T06:45:22;10.85;;;9.85;;
73168;SDS011;61379;59.732;30.468;2023-07-31T06:47:49;12.05;;;10.85;;
73168;SDS011;61379;59.732;30.468;2023-07-31T06:50:16;10.32;;;9.40;;
73168;SDS011;61379;59.732;30.468;2023-07-31T06:52:44;9.27;;;8.40;;
73168;SDS011;61379;59.732;30.468;2023-07-31T06:55:17;8.38;;;7.57;;
73168;SDS011;61379;59.732;30.468;2023-07-31T06:57:46;8.88;;;7.68;;
73168;SDS011;61379;59.732;30.468;2023-07-31T07:00:13;11.73;;;7.95;;
73168;SDS011;61379;59.732;30.468;2023-07-31T07:02:40;9.15;;;8.38;;
73168;SDS011;61379;59.732;30.468;2023-07-31T07:05:07;9.50;;;8.70;;
73168;SDS011;61379;59.732;30.468;2023-07-31T07:07:34;10.45;;;9.57;;
73168;SDS011;61379;59.732;30.468;2023-07-31T07:10:02;9.82;;;8.07;;
73168;SDS011;61379;59.732;30.468;2023-07-31T07:12:31;8.45;;;7.72;;
73168;SDS011;61379;59.732;30.468;2023-07-31T07:14:58;8.10;;;7.38;;
73168;SDS011;61379;59.732;30.468;2023-07-31T07:17:25;7.57;;;6.97;;
73168;SDS011;61379;59.732;30.468;2023-07-31T07:19:52;8.15;;;7.47;;
73168;SDS011;61379;59.732;30.468;2023-07-31T07:22:18;8.32;;;7.65;;
73168;SDS011;61379;59.732;30.468;2023-07-31T07:24:45;9.15;;;8.55;;
73168;SDS011;61379;59.732;30.468;2023-07-31T07:27:13;7.50;;;6.78;;
73168;SDS011;61379;59.732;30.468;2023-07-31T07:29:40;7.57;;;6.97;;
73168;SDS011;61379;59.732;30.468;2023-07-31T07:32:07;7.32;;;6.40;;
73168;SDS011;61379;59.732;30.468;2023-07-31T07:34:34;8.23;;;7.53;;
73168;SDS011;61379;59.732;30.468;2023-07-31T07:37:01;8.00;;;7.15;;
73168;SDS011;61379;59.732;30.468;2023-07-31T07:39:27;7.55;;;6.95;;
73168;SDS011;61379;59.732;30.468;2023-07-31T07:41:54;8.70;;;7.90;;
73168;SDS011;61379;59.732;30.468;2023-07-31T07:44:22;6.72;;;6.22;;
73168;SDS011;61379;59.732;30.468;2023-07-31T07:46:50;7.45;;;6.85;;
73168;SDS011;61379;59.732;30.468;2023-07-31T07:49:18;7.18;;;6.57;;
73168;SDS011;61379;59.732;30.468;2023-07-31T07:51:47;6.95;;;6.45;;
73168;SDS011;61379;59.732;30.468;2023-07-31T07:54:14;8.13;;;7.40;;
73168;SDS011;61379;59.732;30.468;2023-07-31T07:56:42;7.35;;;6.75;;
73168;SDS011;61379;59.732;30.468;2023-07-31T07:59:09;7.10;;;6.60;;
73168;SDS011;61379;59.732;30.468;2023-07-31T08:01:37;7.47;;;6.82;;
73168;SDS011;61379;59.732;30.468;2023-07-31T08:04:04;7.40;;;6.90;;
73168;SDS011;61379;59.732;30.468;2023-07-31T08:06:30;7.03;;;6.53;;
73168;SDS011;61379;59.732;30.468;2023-07-31T08:08:57;7.13;;;6.63;;
73168;SDS011;61379;59.732;30.468;2023-07-31T08:11:24;6.75;;;6.15;;
73168;SDS011;61379;59.732;30.468;2023-07-31T08:13:51;6.50;;;6.00;;
73168;SDS011;61379;59.732;30.468;2023-07-31T08:16:17;6.05;;;5.63;;
73168;SDS011;61379;59.732;30.468;2023-07-31T08:18:45;6.72;;;6.15;;
73168;SDS011;61379;59.732;30.468;2023-07-31T08:21:12;7.15;;;6.55;;
73168;SDS011;61379;59.732;30.468;2023-07-31T08:23:39;7.43;;;6.93;;
73168;SDS011;61379;59.732;30.468;2023-07-31T08:26:06;7.05;;;6.45;;
73168;SDS011;61379;59.732;30.468;2023-07-31T08:28:33;6.78;;;6.28;;
73168;SDS011;61379;59.732;30.468;2023-07-31T08:31:00;7.72;;;7.10;;
73168;SDS011;61379;59.732;30.468;2023-07-31T08:33:27;7.88;;;7.10;;
73168;SDS011;61379;59.732;30.468;2023-07-31T08:35:55;8.38;;;7.68;;
73168;SDS011;61379;59.732;30.468;2023-07-31T08:38:22;7.90;;;7.30;;
73168;SDS011;61379;59.732;30.468;2023-07-31T08:40:50;7.28;;;6.65;;
73168;SDS011;61379;59.732;30.468;2023-07-31T08:43:17;7.68;;;7.07;;
73168;SDS011;61379;59.732;30.468;2023-07-31T08:45:45;7.93;;;7.40;;
73168;SDS011;61379;59.732;30.468;2023-07-31T08:48:12;8.90;;;8.18;;
73168;SDS011;61379;59.732;30.468;2023-07-31T08:50:39;7.88;;;7.18;;
73168;SDS011;61379;59.732;30.468;2023-07-31T08:53:07;8.63;;;7.82;;
73168;SDS011;61379;59.732;30.468;2023-07-31T08:55:34;7.90;;;7.20;;
73168;SDS011;61379;59.732;30.468;2023-07-31T08:58:01;7.57;;;6.97;;
73168;SDS011;61379;59.732;30.468;2023-07-31T09:00:30;7.85;;;7.25;;
73168;SDS011;61379;59.732;30.468;2023-07-31T09:02:59;7.40;;;6.80;;
73168;SDS011;61379;59.732;30.468;2023-07-31T09:05:28;7.18;;;6.57;;
73168;SDS011;61379;59.732;30.468;2023-07-31T09:07:55;7.82;;;7.03;;
73168;SDS011;61379;59.732;30.468;2023-07-31T09:10:23;8.35;;;7.70;;
73168;SDS011;61379;59.732;30.468;2023-07-31T09:12:51;9.70;;;9.10;;
73168;SDS011;61379;59.732;30.468;2023-07-31T09:15:17;8.07;;;7.47;;
73168;SDS011;61379;59.732;30.468;2023-07-31T09:17:45;7.72;;;7.15;;
73168;SDS011;61379;59.732;30.468;2023-07-31T09:20:15;8.48;;;7.88;;
73168;SDS011;61379;59.732;30.468;2023-07-31T09:22:42;8.15;;;7.55;;
73168;SDS011;61379;59.732;30.468;2023-07-31T09:25:15;8.10;;;7.53;;
73168;SDS011;61379;59.732;30.468;2023-07-31T09:27:47;8.65;;;8.00;;
73168;SDS011;61379;59.732;30.468;2023-07-31T09:30:14;7.40;;;6.80;;
73168;SDS011;61379;59.732;30.468;2023-07-31T09:32:42;7.78;;;7.18;;
73168;SDS011;61379;59.732;30.468;2023-07-31T09:35:19;7.40;;;6.80;;
73168;SDS011;61379;59.732;30.468;2023-07-31T09:37:49;8.98;;;8.35;;
73168;SDS011;61379;59.732;30.468;2023-07-31T09:40:26;7.93;;;7.22;;
73168;SDS011;61379;59.732;30.468;2023-07-31T09:42:55;7.40;;;6.90;;
73168;SDS011;61379;59.732;30.468;2023-07-31T09:45:22;7.72;;;7.13;;
73168;SDS011;61379;59.732;30.468;2023-07-31T09:47:49;8.00;;;7.35;;
73168;SDS011;61379;59.732;30.468;2023-07-31T09:50:15;7.50;;;7.00;;
73168;SDS011;61379;59.732;30.468;2023-07-31T09:52:42;7.85;;;7.30;;
73168;SDS011;61379;59.732;30.468;2023-07-31T09:55:09;8.02;;;7.30;;
73168;SDS011;61379;59.732;30.468;2023-07-31T09:57:36;8.18;;;7.55;;
73168;SDS011;61379;59.732;30.468;2023-07-31T10:00:06;8.00;;;7.35;;
73168;SDS011;61379;59.732;30.468;2023-07-31T10:02:34;6.88;;;6.38;;
73168;SDS011;61379;59.732;30.468;2023-07-31T10:05:03;7.43;;;6.85;;
73168;SDS011;61379;59.732;30.468;2023-07-31T10:07:31;7.78;;;7.22;;
73168;SDS011;61379;59.732;30.468;2023-07-31T10:09:57;8.35;;;7.85;;
73168;SDS011;61379;59.732;30.468;2023-07-31T10:12:25;8.02;;;7.53;;
73168;SDS011;61379;59.732;30.468;2023-07-31T10:14:54;8.02;;;7.43;;
73168;SDS011;61379;59.732;30.468;2023-07-31T10:17:22;7.82;;;7.20;;
73168;SDS011;61379;59.732;30.468;2023-07-31T10:22:15;9.60;;;8.93;;
73168;SDS011;61379;59.732;30.468;2023-07-31T10:24:44;9.48;;;8.82;;
73168;SDS011;61379;59.732;30.468;2023-07-31T10:27:11;8.63;;;7.28;;
73168;SDS011;61379;59.732;30.468;2023-07-31T10:29:38;8.13;;;7.57;;
73168;SDS011;61379;59.732;30.468;2023-07-31T10:32:06;7.38;;;6.88;;
73168;SDS011;61379;59.732;30.468;2023-07-31T10:34:36;7.45;;;6.88;;
73168;SDS011;61379;59.732;30.468;2023-07-31T10:37:20;7.38;;;6.88;;
73168;SDS011;61379;59.732;30.468;2023-07-31T10:39:54;8.18;;;7.38;;
73168;SDS011;61379;59.732;30.468;2023-07-31T10:42:23;6.82;;;6.30;;
73168;SDS011;61379;59.732;30.468;2023-07-31T10:44:56;8.35;;;6.40;;
73168;SDS011;61379;59.732;30.468;2023-07-31T10:47:23;7.07;;;6.47;;
73168;SDS011;61379;59.732;30.468;2023-07-31T10:49:51;7.88;;;7.18;;
73168;SDS011;61379;59.732;30.468;2023-07-31T10:52:19;8.07;;;7.40;;
73168;SDS011;61379;59.732;30.468;2023-07-31T10:54:47;7.97;;;7.28;;
73168;SDS011;61379;59.732;30.468;2023-07-31T10:57:20;8.73;;;8.05;;
73168;SDS011;61379;59.732;30.468;2023-07-31T10:59:48;7.63;;;7.07;;
73168;SDS011;61379;59.732;30.468;2023-07-31T11:02:24;7.85;;;7.25;;
73168;SDS011;61379;59.732;30.468;2023-07-31T11:07:50;6.78;;;6.28;;
73168;SDS011;61379;59.732;30.468;2023-07-31T11:10:17;8.25;;;7.55;;
73168;SDS011;61379;59.732;30.468;2023-07-31T11:12:45;7.07;;;6.57;;
73168;SDS011;61379;59.732;30.468;2023-07-31T11:15:12;8.43;;;7.70;;
73168;SDS011;61379;59.732;30.468;2023-07-31T11:17:39;7.97;;;7.38;;
73168;SDS011;61379;59.732;30.468;2023-07-31T11:20:06;7.50;;;7.00;;
73168;SDS011;61379;59.732;30.468;2023-07-31T11:22:34;8.35;;;7.65;;
73168;SDS011;61379;59.732;30.468;2023-07-31T11:25:02;8.68;;;7.88;;
73168;SDS011;61379;59.732;30.468;2023-07-31T11:27:29;8.73;;;8.13;;
73168;SDS011;61379;59.732;30.468;2023-07-31T11:29:59;9.13;;;8.52;;
73168;SDS011;61379;59.732;30.468;2023-07-31T11:32:26;9.15;;;8.35;;
73168;SDS011;61379;59.732;30.468;2023-07-31T11:34:53;9.50;;;8.88;;
73168;SDS011;61379;59.732;30.468;2023-07-31T11:37:20;9.07;;;8.40;;
73168;SDS011;61379;59.732;30.468;2023-07-31T11:39:58;8.73;;;8.13;;
73168;SDS011;61379;59.732;30.468;2023-07-31T11:42:26;7.55;;;7.00;;
73168;SDS011;61379;59.732;30.468;2023-07-31T11:44:53;8.75;;;8.05;;
73168;SDS011;61379;59.732;30.468;2023-07-31T11:47:19;9.18;;;8.40;;
73168;SDS011;61379;59.732;30.468;2023-07-31T11:49:46;8.68;;;8.00;;
73168;SDS011;61379;59.732;30.468;2023-07-31T11:52:14;9.73;;;8.25;;
73168;SDS011;61379;59.732;30.468;2023-07-31T11:54:41;9.75;;;8.95;;
73168;SDS011;61379;59.732;30.468;2023-07-31T11:57:08;9.05;;;8.27;;
73168;SDS011;61379;59.732;30.468;2023-07-31T11:59:37;9.27;;;8.57;;
73168;SDS011;61379;59.732;30.468;2023-07-31T12:02:04;8.52;;;7.93;;
73168;SDS011;61379;59.732;30.468;2023-07-31T12:04:31;8.18;;;7.68;;
73168;SDS011;61379;59.732;30.468;2023-07-31T12:06:59;9.23;;;8.52;;
73168;SDS011;61379;59.732;30.468;2023-07-31T12:11:53;9.02;;;8.30;;
73168;SDS011;61379;59.732;30.468;2023-07-31T12:14:20;8.90;;;8.20;;
73168;SDS011;61379;59.732;30.468;2023-07-31T12:16:49;9.52;;;8.73;;
73168;SDS011;61379;59.732;30.468;2023-07-31T12:19:19;9.10;;;8.50;;
73168;SDS011;61379;59.732;30.468;2023-07-31T12:21:45;10.73;;;9.55;;
73168;SDS011;61379;59.732;30.468;2023-07-31T12:24:12;8.90;;;8.30;;
73168;SDS011;61379;59.732;30.468;2023-07-31T12:26:39;8.50;;;7.90;;
73168;SDS011;61379;59.732;30.468;2023-07-31T12:29:06;8.68;;;8.07;;
73168;SDS011;61379;59.732;30.468;2023-07-31T12:31:33;9.75;;;8.85;;
73168;SDS011;61379;59.732;30.468;2023-07-31T12:34:03;10.07;;;9.10;;
73168;SDS011;61379;59.732;30.468;2023-07-31T12:36:30;11.00;;;9.60;;
73168;SDS011;61379;59.732;30.468;2023-07-31T12:39:00;9.55;;;8.75;;
73168;SDS011;61379;59.732;30.468;2023-07-31T12:41:27;9.55;;;8.65;;
73168;SDS011;61379;59.732;30.468;2023-07-31T12:43:54;9.43;;;8.63;;
73168;SDS011;61379;59.732;30.468;2023-07-31T12:46:21;10.05;;;9.25;;
73168;SDS011;61379;59.732;30.468;2023-07-31T12:48:47;9.70;;;8.85;;
73168;SDS011;61379;59.732;30.468;2023-07-31T12:51:16;9.88;;;9.07;;
73168;SDS011;61379;59.732;30.468;2023-07-31T12:53:42;11.65;;;10.73;;
73168;SDS011;61379;59.732;30.468;2023-07-31T12:56:09;10.88;;;9.75;;
73168;SDS011;61379;59.732;30.468;2023-07-31T12:58:36;8.93;;;8.07;;
73168;SDS011;61379;59.732;30.468;2023-07-31T13:01:03;9.38;;;8.68;;
73168;SDS011;61379;59.732;30.468;2023-07-31T13:03:29;9.50;;;8.60;;
73168;SDS011;61379;59.732;30.468;2023-07-31T13:05:56;9.88;;;9.18;;
73168;SDS011;61379;59.732;30.468;2023-07-31T13:08:24;9.13;;;7.88;;
73168;SDS011;61379;59.732;30.468;2023-07-31T13:10:51;8.75;;;8.10;;
73168;SDS011;61379;59.732;30.468;2023-07-31T13:13:18;8.13;;;7.45;;
73168;SDS011;61379;59.732;30.468;2023-07-31T13:15:44;8.45;;;7.85;;
73168;SDS011;61379;59.732;30.468;2023-07-31T13:18:11;8.48;;;7.93;;
73168;SDS011;61379;59.732;30.468;2023-07-31T13:20:38;9.05;;;8.35;;
73168;SDS011;61379;59.732;30.468;2023-07-31T13:23:04;9.15;;;8.45;;
73168;SDS011;61379;59.732;30.468;2023-07-31T13:25:32;8.80;;;8.00;;
73168;SDS011;61379;59.732;30.468;2023-07-31T13:27:59;8.90;;;8.20;;
73168;SDS011;61379;59.732;30.468;2023-07-31T13:30:26;9.90;;;8.82;;
73168;SDS011;61379;59.732;30.468;2023-07-31T13:32:53;15.20;;;8.90;;
73168;SDS011;61379;59.732;30.468;2023-07-31T13:35:19;11.60;;;9.52;;
73168;SDS011;61379;59.732;30.468;2023-07-31T13:37:46;11.00;;;9.82;;
73168;SDS011;61379;59.732;30.468;2023-07-31T13:40:13;10.70;;;9.70;;
73168;SDS011;61379;59.732;30.468;2023-07-31T13:42:41;9.32;;;8.43;;
73168;SDS011;61379;59.732;30.468;2023-07-31T13:45:08;10.98;;;9.98;;
73168;SDS011;61379;59.732;30.468;2023-07-31T13:47:35;9.80;;;9.20;;
73168;SDS011;61379;59.732;30.468;2023-07-31T13:50:02;9.07;;;8.43;;
73168;SDS011;61379;59.732;30.468;2023-07-31T13:52:30;9.38;;;8.68;;
73168;SDS011;61379;59.732;30.468;2023-07-31T13:54:57;8.48;;;7.85;;
73168;SDS011;61379;59.732;30.468;2023-07-31T13:57:24;4.05;;;3.20;;
73168;SDS011;61379;59.732;30.468;2023-07-31T13:59:52;8.45;;;7.85;;
73168;SDS011;61379;59.732;30.468;2023-07-31T14:02:18;3.67;;;1.85;;
73168;SDS011;61379;59.732;30.468;2023-07-31T14:04:45;8.52;;;8.02;;
73168;SDS011;61379;59.732;30.468;2023-07-31T14:07:12;9.27;;;8.68;;
73168;SDS011;61379;59.732;30.468;2023-07-31T14:09:38;8.80;;;8.18;;
73168;SDS011;61379;59.732;30.468;2023-07-31T14:12:05;9.70;;;9.00;;
73168;SDS011;61379;59.732;30.468;2023-07-31T14:14:32;9.77;;;8.88;;
73168;SDS011;61379;59.732;30.468;2023-07-31T14:17:01;8.60;;;8.00;;
73168;SDS011;61379;59.732;30.468;2023-07-31T14:19:28;10.27;;;9.68;;
73168;SDS011;61379;59.732;30.468;2023-07-31T14:21:55;9.25;;;8.55;;
73168;SDS011;61379;59.732;30.468;2023-07-31T14:24:21;8.65;;;8.05;;
73168;SDS011;61379;59.732;30.468;2023-07-31T14:26:48;9.15;;;8.35;;
73168;SDS011;61379;59.732;30.468;2023-07-31T14:29:15;8.70;;;7.93;;
73168;SDS011;61379;59.732;30.468;2023-07-31T14:31:41;10.00;;;9.35;;
73168;SDS011;61379;59.732;30.468;2023-07-31T14:34:10;9.57;;;8.88;;
73168;SDS011;61379;59.732;30.468;2023-07-31T14:36:36;8.98;;;8.38;;
73168;SDS011;61379;59.732;30.468;2023-07-31T14:39:03;9.68;;;8.98;;
73168;SDS011;61379;59.732;30.468;2023-07-31T14:41:30;9.48;;;8.77;;